Time;durP1;ratioP1;P1;durP2;ratioP2;P2;SDS_P1;SDS_P2;PMS_P1;PMS_P2;Temp;Humidity;BMP_temperature;BMP_pressure;BME280_temperature;BME280_humidity;BME280_pressure;Samples;Min_cycle;Max_cycle;Signal;HPM_P1;HPM_P2
2022/09/21 00:00:25;;;;;;;;;;;13.20;59.60;;;;;;5027124;28;87099;-42
2022/09/21 00:02:51;;;;;;;;;;;13.20;59.50;;;;;;5024611;28;87510;-42
2022/09/21 00:05:16;;;;;;;;;;;13.20;59.50;;;;;;5024618;28;87124;-42
2022/09/21 00:07:43;;;;;;;;;;;13.20;59.50;;;;;;5024390;28;87545;-42
2022/09/21 00:10:08;;;;;;;;;;;13.20;59.50;;;;;;5022998;28;89031;-42
2022/09/21 00:12:37;;;;;;;;;;;13.20;59.40;;;;;;5024314;28;87076;-42
2022/09/21 00:15:09;;;;;;;;;;;13.20;59.50;;;;;;5024030;28;87445;-42
2022/09/21 00:17:35;;;;;;;;;;;13.10;59.40;;;;;;5023513;28;90048;-42
2022/09/21 00:20:04;;;;;;;;;;;13.20;59.50;;;;;;5024286;28;87146;-42
2022/09/21 00:22:29;;;;;;;;;;;13.10;59.40;;;;;;5026626;28;87437;-42
2022/09/21 00:24:55;;;;;;;;;;;13.10;59.50;;;;;;5022986;28;87110;-42
2022/09/21 00:27:20;;;;;;;;;;;13.10;59.40;;;;;;5024713;28;87388;-42
2022/09/21 00:29:47;;;;;;;;;;;13.10;59.50;;;;;;5023327;28;88015;-42
2022/09/21 00:32:14;;;;;;;;;;;13.00;59.60;;;;;;5023735;28;87486;-42
2022/09/21 00:34:40;;;;;;;;;;;13.10;59.60;;;;;;5023181;28;88044;-42
2022/09/21 00:37:08;;;;;;;;;;;13.00;59.50;;;;;;5023621;28;87046;-42
2022/09/21 00:39:33;;;;;;;;;;;13.00;59.50;;;;;;5023755;28;87173;-42
2022/09/21 00:41:59;;;;;;;;;;;13.00;59.60;;;;;;5026450;28;87593;-42
2022/09/21 00:44:29;;;;;;;;;;;13.10;59.60;;;;;;5023534;28;87723;-42
2022/09/21 00:46:57;;;;;;;;;;;13.00;59.60;;;;;;5023761;28;87472;-42
2022/09/21 00:49:23;;;;;;;;;;;13.00;59.60;;;;;;5023439;28;88580;-42
2022/09/21 00:51:52;;;;;;;;;;;13.00;59.70;;;;;;5024223;28;86376;-42
2022/09/21 00:54:24;;;;;;;;;;;12.90;59.70;;;;;;5023520;28;86982;-42
2022/09/21 00:56:50;;;;;;;;;;;12.90;59.70;;;;;;5022867;28;88077;-42
2022/09/21 00:59:16;;;;;;;;;;;13.00;59.60;;;;;;5022705;28;88074;-42
2022/09/21 01:01:42;;;;;;;;;;;12.90;59.70;;;;;;5023353;28;87277;-42
2022/09/21 01:04:09;;;;;;;;;;;12.90;59.70;;;;;;5026177;28;87994;-42
2022/09/21 01:06:37;;;;;;;;;;;12.90;59.80;;;;;;5023488;28;86963;-42
2022/09/21 01:09:03;;;;;;;;;;;12.80;59.70;;;;;;5022660;28;87223;-42
2022/09/21 01:11:47;;;;;;;;;;;12.90;59.80;;;;;;5023175;28;87141;-42
2022/09/21 01:14:18;;;;;;;;;;;12.80;59.60;;;;;;5023414;28;87048;-42
2022/09/21 01:17:02;;;;;;;;;;;12.90;59.70;;;;;;5023447;28;87126;-42
2022/09/21 01:19:30;;;;;;;;;;;12.90;59.70;;;;;;5023126;28;87010;-42
2022/09/21 01:22:09;;;;;;;;;;;12.90;59.70;;;;;;5022953;28;87458;-41
2022/09/21 01:24:38;;;;;;;;;;;12.80;59.70;;;;;;5022218;28;88754;-42
2022/09/21 01:27:21;;;;;;;;;;;12.80;59.70;;;;;;5026050;28;87171;-42
2022/09/21 01:29:52;;;;;;;;;;;12.80;59.80;;;;;;5022899;28;88132;-42
2022/09/21 01:32:24;;;;;;;;;;;12.70;59.90;;;;;;5022767;28;87130;-42
2022/09/21 01:34:54;;;;;;;;;;;12.80;59.90;;;;;;5023025;28;87398;-42
2022/09/21 01:37:23;;;;;;;;;;;12.80;59.90;;;;;;5021935;28;88037;-42
2022/09/21 01:39:51;;;;;;;;;;;12.70;59.80;;;;;;5022824;28;87152;-42
2022/09/21 01:42:18;;;;;;;;;;;12.70;59.90;;;;;;5023252;28;87377;-42
2022/09/21 01:44:44;;;;;;;;;;;12.70;59.90;;;;;;5022524;28;87276;-42
2022/09/21 01:47:11;;;;;;;;;;;12.70;59.90;;;;;;5022779;28;87142;-42
2022/09/21 01:49:49;;;;;;;;;;;12.70;59.80;;;;;;5024916;28;88016;-42
2022/09/21 01:52:20;;;;;;;;;;;12.70;59.90;;;;;;5022725;28;86929;-42
2022/09/21 01:54:48;;;;;;;;;;;12.70;59.90;;;;;;5022754;28;87015;-42
2022/09/21 01:57:33;;;;;;;;;;;12.70;59.90;;;;;;5022166;28;87992;-42
2022/09/21 01:59:59;;;;;;;;;;;12.70;59.80;;;;;;5022900;28;87191;-42
2022/09/21 02:02:33;;;;;;;;;;;12.70;59.90;;;;;;5022626;28;87390;-42
2022/09/21 02:05:03;;;;;;;;;;;12.60;59.90;;;;;;5022325;28;87088;-42
2022/09/21 02:07:29;;;;;;;;;;;12.60;59.90;;;;;;5022979;28;86331;-42
2022/09/21 02:09:55;;;;;;;;;;;12.60;59.90;;;;;;5022244;28;87027;-42
2022/09/21 02:12:21;;;;;;;;;;;12.60;60.00;;;;;;5024993;28;88016;-42
2022/09/21 02:14:48;;;;;;;;;;;12.60;60.00;;;;;;5021860;28;88180;-42
2022/09/21 02:17:23;;;;;;;;;;;12.60;59.90;;;;;;5022051;28;88101;-42
2022/09/21 02:19:54;;;;;;;;;;;12.60;59.90;;;;;;5022593;28;87079;-42
2022/09/21 02:22:29;;;;;;;;;;;12.50;59.90;;;;;;5022475;28;87437;-42
2022/09/21 02:24:56;;;;;;;;;;;12.60;60.00;;;;;;5021606;28;88128;-42
2022/09/21 02:27:24;;;;;;;;;;;12.50;60.00;;;;;;5022473;28;87284;-42
2022/09/21 02:30:06;;;;;;;;;;;12.60;60.00;;;;;;5022446;28;87253;-42
2022/09/21 02:32:45;;;;;;;;;;;12.50;60.00;;;;;;5022185;28;87362;-42
2022/09/21 02:35:11;;;;;;;;;;;12.50;60.00;;;;;;5024880;28;87200;-42
2022/09/21 02:37:44;;;;;;;;;;;12.50;60.10;;;;;;5021784;28;87307;-42
2022/09/21 02:40:22;;;;;;;;;;;12.40;60.00;;;;;;5021646;28;87939;-42
2022/09/21 02:42:50;;;;;;;;;;;12.40;60.00;;;;;;5022188;28;88398;-42
2022/09/21 02:45:24;;;;;;;;;;;12.50;60.00;;;;;;5021686;28;87945;-42
2022/09/21 02:47:58;;;;;;;;;;;12.40;60.00;;;;;;5022081;28;87116;-42
2022/09/21 02:50:34;;;;;;;;;;;12.40;60.10;;;;;;5025410;28;87247;-42
2022/09/21 02:53:00;;;;;;;;;;;12.40;60.10;;;;;;5024866;28;88044;-42
2022/09/21 02:55:26;;;;;;;;;;;12.40;60.10;;;;;;5028398;28;87078;-42
2022/09/21 02:57:54;;;;;;;;;;;12.40;60.10;;;;;;5025597;28;87360;-42
2022/09/21 03:00:20;;;;;;;;;;;12.40;60.10;;;;;;5025283;28;86998;-42
2022/09/21 03:02:45;;;;;;;;;;;12.40;60.10;;;;;;5025580;28;87456;-42
2022/09/21 03:05:12;;;;;;;;;;;12.40;60.10;;;;;;5024381;28;89047;-42
2022/09/21 03:07:38;;;;;;;;;;;12.40;60.00;;;;;;5025141;28;87041;-42
2022/09/21 03:10:05;;;;;;;;;;;12.30;60.10;;;;;;5024976;28;87540;-42
2022/09/21 03:12:31;;;;;;;;;;;12.30;60.10;;;;;;5024739;28;87960;-42
2022/09/21 03:14:58;;;;;;;;;;;12.30;60.10;;;;;;5024721;28;87127;-42
2022/09/21 03:17:24;;;;;;;;;;;12.20;60.10;;;;;;5027782;28;87488;-42
2022/09/21 03:19:53;;;;;;;;;;;12.30;60.20;;;;;;5025050;28;87158;-42
2022/09/21 03:22:20;;;;;;;;;;;12.30;60.10;;;;;;5025438;28;87482;-42
2022/09/21 03:24:46;;;;;;;;;;;12.20;60.10;;;;;;5024586;28;88016;-42
2022/09/21 03:27:11;;;;;;;;;;;12.30;60.10;;;;;;5024866;28;87112;-42
2022/09/21 03:29:37;;;;;;;;;;;12.30;60.10;;;;;;5024427;28;87905;-42
2022/09/21 03:32:03;;;;;;;;;;;12.20;60.20;;;;;;5024259;28;88215;-42
2022/09/21 03:34:31;;;;;;;;;;;12.20;60.20;;;;;;5024937;28;87107;-42
2022/09/21 03:36:57;;;;;;;;;;;12.20;60.10;;;;;;5024853;28;87512;-41
2022/09/21 03:39:22;;;;;;;;;;;12.20;60.10;;;;;;5027376;28;88279;-42
2022/09/21 03:41:48;;;;;;;;;;;12.10;60.10;;;;;;5024739;28;87220;-41
2022/09/21 03:44:15;;;;;;;;;;;12.20;60.20;;;;;;5024278;28;88051;-42
2022/09/21 03:46:40;;;;;;;;;;;12.20;60.10;;;;;;5025239;28;86268;-42
2022/09/21 03:49:06;;;;;;;;;;;12.10;60.00;;;;;;5024690;28;87051;-42
2022/09/21 03:51:31;;;;;;;;;;;12.20;60.00;;;;;;5024069;28;88181;-42
2022/09/21 03:53:57;;;;;;;;;;;12.10;60.00;;;;;;5024248;28;88346;-42
2022/09/21 03:56:22;;;;;;;;;;;12.10;60.00;;;;;;5024459;28;87589;-42
2022/09/21 03:58:48;;;;;;;;;;;12.10;60.10;;;;;;5024011;28;88154;-42
2022/09/21 04:01:14;;;;;;;;;;;12.10;60.10;;;;;;5027018;28;87390;-42
2022/09/21 04:03:39;;;;;;;;;;;12.10;60.00;;;;;;5024102;28;88126;-42
2022/09/21 04:06:08;;;;;;;;;;;12.10;60.10;;;;;;5024412;28;87123;-42
2022/09/21 04:08:34;;;;;;;;;;;12.10;60.10;;;;;;5023888;28;87431;-42
2022/09/21 04:10:59;;;;;;;;;;;12.00;60.10;;;;;;5024375;28;87395;-42
2022/09/21 04:13:25;;;;;;;;;;;12.00;60.10;;;;;;5023969;28;87858;-42
2022/09/21 04:15:50;;;;;;;;;;;12.00;60.10;;;;;;5024295;28;87479;-42
2022/09/21 04:18:16;;;;;;;;;;;12.00;60.20;;;;;;5023208;28;89318;-42
2022/09/21 04:20:41;;;;;;;;;;;12.00;60.10;;;;;;5024150;28;87099;-41
2022/09/21 04:23:07;;;;;;;;;;;12.00;60.10;;;;;;5026829;28;87460;-42
2022/09/21 04:25:32;;;;;;;;;;;12.00;60.20;;;;;;5023953;28;87053;-42
2022/09/21 04:27:58;;;;;;;;;;;11.90;60.20;;;;;;5022266;28;90295;-42
2022/09/21 04:30:23;;;;;;;;;;;11.90;60.80;;;;;;5023565;28;87373;-42
2022/09/21 04:32:49;;;;;;;;;;;12.00;60.10;;;;;;5023731;28;87019;-42
2022/09/21 04:35:14;;;;;;;;;;;11.90;60.10;;;;;;5024490;28;87391;-42
2022/09/21 04:37:40;;;;;;;;;;;11.90;60.10;;;;;;5023425;28;88107;-41
2022/09/21 04:40:06;;;;;;;;;;;11.90;60.00;;;;;;5023734;28;87167;-42
2022/09/21 04:42:32;;;;;;;;;;;11.90;60.10;;;;;;5023079;28;87981;-42
2022/09/21 04:44:57;;;;;;;;;;;11.90;60.30;;;;;;5026320;28;87089;-42
2022/09/21 04:47:24;;;;;;;;;;;11.90;60.10;;;;;;5023708;28;87526;-42
2022/09/21 04:49:51;;;;;;;;;;;11.90;60.10;;;;;;5023456;28;88061;-42
2022/09/21 04:52:16;;;;;;;;;;;11.80;60.10;;;;;;5023561;28;87141;-42
2022/09/21 04:54:42;;;;;;;;;;;11.90;60.10;;;;;;5023691;28;87041;-42
2022/09/21 04:57:07;;;;;;;;;;;11.80;60.10;;;;;;5023073;28;87699;-41
2022/09/21 04:59:33;;;;;;;;;;;11.80;60.10;;;;;;5024369;28;86342;-42
2022/09/21 05:01:58;;;;;;;;;;;11.80;60.20;;;;;;5023546;28;86941;-42
2022/09/21 05:04:24;;;;;;;;;;;11.90;60.10;;;;;;5026037;28;88005;-42
2022/09/21 05:06:49;;;;;;;;;;;11.80;60.10;;;;;;5023037;28;87892;-42
2022/09/21 05:11:59;;;;;;;;;;;11.80;60.10;;;;;;5022558;28;87082;-42
2022/09/21 05:14:24;;;;;;;;;;;11.80;60.00;;;;;;5023509;28;87217;-42
2022/09/21 05:16:50;;;;;;;;;;;11.90;60.00;;;;;;5023098;28;88047;-42
2022/09/21 05:19:16;;;;;;;;;;;11.80;60.00;;;;;;5023241;28;87086;-42
2022/09/21 05:21:41;;;;;;;;;;;11.90;59.90;;;;;;5023151;28;87184;-42
2022/09/21 05:24:07;;;;;;;;;;;11.80;59.80;;;;;;5023380;28;86739;-42
2022/09/21 05:26:32;;;;;;;;;;;11.80;59.80;;;;;;5025840;28;87105;-42
2022/09/21 05:28:58;;;;;;;;;;;11.80;60.00;;;;;;5022739;28;87976;-42
2022/09/21 05:31:31;;;;;;;;;;;11.80;59.80;;;;;;5022159;28;88035;-42
2022/09/21 05:33:57;;;;;;;;;;;11.80;59.90;;;;;;5023231;28;88395;-41
2022/09/21 05:36:41;;;;;;;;;;;11.80;59.80;;;;;;5022701;28;88001;-42
2022/09/21 05:39:07;;;;;;;;;;;11.80;59.90;;;;;;5022567;28;87669;-42
2022/09/21 05:41:32;;;;;;;;;;;11.80;59.90;;;;;;5022720;28;88606;-42
2022/09/21 05:43:58;;;;;;;;;;;11.80;59.90;;;;;;5022505;28;88038;-42
2022/09/21 05:46:42;;;;;;;;;;;11.70;60.50;;;;;;5023062;28;87105;-42
2022/09/21 05:49:17;;;;;;;;;;;11.70;60.00;;;;;;5025786;28;87458;-42
2022/09/21 05:51:51;;;;;;;;;;;11.70;60.10;;;;;;5022589;28;87155;-42
2022/09/21 05:54:29;;;;;;;;;;;11.70;60.00;;;;;;5022705;28;87371;-42
2022/09/21 05:56:57;;;;;;;;;;;11.70;60.00;;;;;;5021934;28;89105;-42
2022/09/21 05:59:40;;;;;;;;;;;11.70;60.10;;;;;;5023072;28;87143;-42
2022/09/21 06:02:08;;;;;;;;;;;11.70;60.00;;;;;;5022627;28;87304;-42
2022/09/21 06:04:34;;;;;;;;;;;11.60;60.20;;;;;;5022342;28;88091;-42
2022/09/21 06:06:59;;;;;;;;;;;11.60;60.10;;;;;;5022553;28;87070;-42
2022/09/21 06:09:25;;;;;;;;;;;11.70;60.20;;;;;;5022167;28;87304;-42
2022/09/21 06:11:51;;;;;;;;;;;11.70;60.20;;;;;;5025203;28;88056;-42
2022/09/21 06:14:23;;;;;;;;;;;11.60;60.30;;;;;;5023057;28;86982;-42
2022/09/21 06:16:49;;;;;;;;;;;11.60;60.30;;;;;;5021992;28;87954;-42
2022/09/21 06:19:14;;;;;;;;;;;11.60;60.40;;;;;;5022313;28;87065;-42
2022/09/21 06:21:40;;;;;;;;;;;11.50;60.30;;;;;;5021834;28;87686;-42
2022/09/21 06:24:05;;;;;;;;;;;11.50;60.40;;;;;;5025121;28;87388;-42
2022/09/21 06:26:31;;;;;;;;;;;11.50;60.30;;;;;;5025920;28;87101;-42
2022/09/21 06:28:56;;;;;;;;;;;11.60;60.40;;;;;;5026045;28;87455;-42
2022/09/21 06:31:22;;;;;;;;;;;11.60;60.50;;;;;;5025524;28;88204;-42
2022/09/21 06:33:47;;;;;;;;;;;11.60;60.50;;;;;;5028577;28;87059;-42
2022/09/21 06:36:13;;;;;;;;;;;11.60;60.40;;;;;;5025431;28;88618;-42
2022/09/21 06:38:38;;;;;;;;;;;11.60;60.40;;;;;;5026205;28;86332;-42
2022/09/21 06:41:04;;;;;;;;;;;11.50;60.60;;;;;;5025774;28;87011;-42
2022/09/21 06:43:30;;;;;;;;;;;11.50;60.50;;;;;;5025299;28;87467;-42
2022/09/21 06:45:57;;;;;;;;;;;11.50;60.70;;;;;;5025065;28;88037;-42
2022/09/21 06:48:23;;;;;;;;;;;11.50;60.90;;;;;;5025511;28;88348;-42
2022/09/21 06:50:49;;;;;;;;;;;11.40;60.70;;;;;;5025279;28;87182;-42
2022/09/21 06:53:15;;;;;;;;;;;11.50;60.80;;;;;;5025639;28;87137;-42
2022/09/21 06:55:41;;;;;;;;;;;11.50;60.80;;;;;;5028116;28;87544;-42
2022/09/21 06:58:06;;;;;;;;;;;11.40;61.00;;;;;;5025418;28;87118;-42
2022/09/21 07:00:32;;;;;;;;;;;11.40;61.20;;;;;;5025172;28;87375;-42
2022/09/21 07:02:57;;;;;;;;;;;11.40;60.90;;;;;;5025784;28;87207;-42
2022/09/21 07:05:23;;;;;;;;;;;11.40;60.90;;;;;;5025360;28;87197;-42
2022/09/21 07:07:49;;;;;;;;;;;11.40;61.00;;;;;;5025242;28;87365;-42
2022/09/21 07:10:14;;;;;;;;;;;11.40;61.30;;;;;;5024127;28;88966;-42
2022/09/21 07:12:40;;;;;;;;;;;11.30;61.70;;;;;;5025196;28;87011;-42
2022/09/21 07:15:06;;;;;;;;;;;11.40;61.20;;;;;;5027644;28;87353;-42
2022/09/21 07:17:36;;;;;;;;;;;11.40;61.00;;;;;;5024892;28;87034;-42
2022/09/21 07:20:02;;;;;;;;;;;11.50;60.90;;;;;;5024937;28;87544;-42
2022/09/21 07:22:28;;;;;;;;;;;11.50;60.80;;;;;;5024770;28;87997;-42
2022/09/21 07:24:53;;;;;;;;;;;11.50;60.70;;;;;;5025018;28;87012;-42
2022/09/21 07:27:19;;;;;;;;;;;11.50;60.80;;;;;;5025409;28;87531;-42
2022/09/21 07:29:44;;;;;;;;;;;11.50;60.80;;;;;;5024284;28;88126;-42
2022/09/21 07:32:11;;;;;;;;;;;11.50;60.80;;;;;;5024664;28;87111;-42
2022/09/21 07:34:36;;;;;;;;;;;11.50;61.10;;;;;;5023612;28;87994;-42
2022/09/21 07:37:02;;;;;;;;;;;11.50;61.00;;;;;;5027416;28;88063;-42
2022/09/21 07:39:28;;;;;;;;;;;11.50;61.30;;;;;;5024818;28;87580;-42
2022/09/21 07:41:54;;;;;;;;;;;11.50;61.10;;;;;;5024449;28;88187;-42
2022/09/21 07:44:21;;;;;;;;;;;11.50;61.30;;;;;;5024676;28;87021;-42
2022/09/21 07:46:50;;;;;;;;;;;11.50;61.20;;;;;;5024659;28;86992;-42
2022/09/21 07:49:15;;;;;;;;;;;11.50;61.40;;;;;;5024314;28;87568;-42
2022/09/21 07:51:41;;;;;;;;;;;11.50;61.30;;;;;;5025192;28;86381;-42
2022/09/21 07:54:08;;;;;;;;;;;11.50;61.30;;;;;;5024755;28;86968;-42
2022/09/21 07:56:35;;;;;;;;;;;11.50;61.40;;;;;;5024187;28;87991;-42
2022/09/21 07:59:06;;;;;;;;;;;11.50;61.40;;;;;;5026807;28;87905;-42
2022/09/21 08:01:38;;;;;;;;;;;11.50;61.50;;;;;;5024336;28;87986;-42
2022/09/21 08:04:05;;;;;;;;;;;11.50;61.50;;;;;;5024406;28;87385;-42
2022/09/21 08:06:31;;;;;;;;;;;11.40;61.50;;;;;;5024126;28;86968;-42
2022/09/21 08:08:58;;;;;;;;;;;11.50;61.60;;;;;;5023316;28;87978;-42
2022/09/21 08:11:24;;;;;;;;;;;11.50;61.50;;;;;;5024216;28;86910;-42
2022/09/21 08:13:54;;;;;;;;;;;11.60;61.50;;;;;;5024167;28;87313;-42
2022/09/21 08:16:20;;;;;;;;;;;11.50;61.40;;;;;;5024234;28;86289;-42
2022/09/21 08:18:45;;;;;;;;;;;11.50;61.70;;;;;;5024154;28;87045;-42
2022/09/21 08:21:11;;;;;;;;;;;11.50;61.70;;;;;;5026798;28;87302;-42
2022/09/21 08:23:39;;;;;;;;;;;11.50;61.40;;;;;;5023624;28;88037;-42
2022/09/21 08:26:06;;;;;;;;;;;11.60;61.50;;;;;;5023873;28;88218;-42
2022/09/21 08:28:35;;;;;;;;;;;11.60;61.60;;;;;;5023700;28;88199;-42
2022/09/21 08:31:01;;;;;;;;;;;11.60;61.60;;;;;;5023989;28;87045;-42
2022/09/21 08:33:27;;;;;;;;;;;11.60;61.50;;;;;;5023876;28;87383;-42
2022/09/21 08:35:53;;;;;;;;;;;11.60;61.60;;;;;;5023575;28;88104;-42
2022/09/21 08:38:19;;;;;;;;;;;11.60;61.50;;;;;;5023927;28;86872;-42
2022/09/21 08:40:44;;;;;;;;;;;11.60;61.60;;;;;;5024356;28;87694;-42
2022/09/21 08:43:12;;;;;;;;;;;11.60;61.50;;;;;;5026053;28;87103;-42
2022/09/21 08:45:40;;;;;;;;;;;11.60;61.70;;;;;;5023247;28;87450;-42
2022/09/21 08:48:10;;;;;;;;;;;11.60;61.70;;;;;;5022329;28;89134;-42
2022/09/21 08:50:41;;;;;;;;;;;11.60;61.60;;;;;;5023617;28;86995;-42
2022/09/21 08:53:11;;;;;;;;;;;11.60;61.80;;;;;;5023764;28;87326;-42
2022/09/21 08:55:37;;;;;;;;;;;11.50;61.80;;;;;;5023086;28;88044;-42
2022/09/21 08:58:02;;;;;;;;;;;11.60;61.80;;;;;;5023484;28;87100;-42
2022/09/21 09:00:33;;;;;;;;;;;11.60;61.80;;;;;;5023682;28;87294;-42
2022/09/21 09:02:58;;;;;;;;;;;11.60;61.90;;;;;;5023219;28;87793;-42
2022/09/21 09:05:43;;;;;;;;;;;11.60;62.00;;;;;;5026810;28;86392;-42
2022/09/21 09:08:25;;;;;;;;;;;11.60;61.80;;;;;;5022921;28;88151;-42
2022/09/21 09:11:03;;;;;;;;;;;11.60;61.80;;;;;;5023192;28;87113;-42
2022/09/21 09:13:28;;;;;;;;;;;11.60;61.70;;;;;;5022976;28;87969;-42
2022/09/21 09:16:12;;;;;;;;;;;11.60;61.80;;;;;;5022917;28;87963;-42
2022/09/21 09:18:47;;;;;;;;;;;11.60;62.00;;;;;;5023338;28;86842;-42
2022/09/21 09:21:17;;;;;;;;;;;11.60;62.00;;;;;;5022940;28;87039;-42
2022/09/21 09:23:45;;;;;;;;;;;11.60;62.00;;;;;;5022695;28;88022;-42
2022/09/21 09:26:20;;;;;;;;;;;11.60;61.90;;;;;;5025491;28;87090;-42
2022/09/21 09:28:45;;;;;;;;;;;11.60;61.90;;;;;;5022661;28;88161;-42
2022/09/21 09:31:22;;;;;;;;;;;11.70;61.90;;;;;;5023622;28;86400;-42
2022/09/21 09:34:06;;;;;;;;;;;11.60;61.80;;;;;;5022801;28;86863;-42
2022/09/21 09:36:32;;;;;;;;;;;11.70;61.90;;;;;;5022713;28;88156;-42
2022/09/21 09:39:00;;;;;;;;;;;11.70;61.80;;;;;;5022312;28;88027;-42
2022/09/21 09:41:44;;;;;;;;;;;11.70;61.80;;;;;;5022616;28;88316;-42
2022/09/21 09:44:28;;;;;;;;;;;11.60;62.00;;;;;;5022432;28;88465;-42
2022/09/21 09:47:12;;;;;;;;;;;11.60;62.00;;;;;;5022843;28;87746;-42
2022/09/21 09:49:56;;;;;;;;;;;11.70;61.90;;;;;;5025516;28;87311;-42
2022/09/21 09:52:21;;;;;;;;;;;11.70;62.00;;;;;;5022817;28;87123;-41
2022/09/21 09:54:47;;;;;;;;;;;11.70;61.90;;;;;;5022666;28;87312;-42
2022/09/21 09:57:14;;;;;;;;;;;11.70;61.70;;;;;;5022867;28;87484;-42
2022/09/21 09:59:45;;;;;;;;;;;11.80;61.60;;;;;;5022828;28;87060;-42
2022/09/21 10:02:21;;;;;;;;;;;11.80;61.60;;;;;;5021113;28;90428;-42
2022/09/21 10:04:53;;;;;;;;;;;11.80;61.80;;;;;;5021500;28;88958;-41
2022/09/21 10:07:18;;;;;;;;;;;11.80;61.70;;;;;;5022587;28;87085;-42
2022/09/21 10:09:44;;;;;;;;;;;11.90;61.70;;;;;;5022328;28;87402;-42
2022/09/21 10:12:22;;;;;;;;;;;11.90;61.60;;;;;;5025212;28;87330;-42
2022/09/21 10:14:49;;;;;;;;;;;11.90;61.50;;;;;;5022304;28;87091;-42
2022/09/21 10:17:15;;;;;;;;;;;11.90;61.60;;;;;;5021870;28;88188;-42
2022/09/21 10:19:41;;;;;;;;;;;11.90;61.60;;;;;;5022583;28;87187;-42
2022/09/21 10:22:13;;;;;;;;;;;12.00;61.90;;;;;;5022943;28;87085;-42
2022/09/21 10:24:45;;;;;;;;;;;12.00;61.40;;;;;;5022296;28;88329;-42
2022/09/21 10:27:15;;;;;;;;;;;12.00;62.00;;;;;;5022571;28;87005;-42
2022/09/21 10:29:41;;;;;;;;;;;12.00;62.00;;;;;;5021742;28;87886;-42
2022/09/21 10:32:28;;;;;;;;;;;12.00;62.10;;;;;;5021610;28;88022;-42
2022/09/21 10:35:20;;;;;;;;;;;11.90;62.00;;;;;;5024813;28;87128;-42
2022/09/21 10:37:52;;;;;;;;;;;12.00;61.70;;;;;;5019776;28;87968;-42
2022/09/21 10:40:17;;;;;;;;;;;12.00;62.00;;;;;;5022375;28;87218;-42
2022/09/21 10:42:43;;;;;;;;;;;12.00;61.90;;;;;;5022264;28;87476;-42
2022/09/21 10:45:14;;;;;;;;;;;12.00;61.90;;;;;;5021713;28;87099;-42
2022/09/21 10:47:45;;;;;;;;;;;12.00;61.90;;;;;;5022601;28;86388;-42
2022/09/21 10:50:34;;;;;;;;;;;12.00;61.80;;;;;;5021847;28;87043;-42
2022/09/21 10:53:01;;;;;;;;;;;12.00;61.60;;;;;;5021831;28;88114;-42
2022/09/21 10:55:27;;;;;;;;;;;11.90;62.20;;;;;;5021368;28;87992;-42
2022/09/21 10:57:53;;;;;;;;;;;12.00;61.90;;;;;;5024471;28;88423;-42
2022/09/21 11:00:30;;;;;;;;;;;12.00;61.80;;;;;;5021911;28;87127;-42
2022/09/21 11:02:59;;;;;;;;;;;12.00;61.70;;;;;;5021931;28;87481;-42
2022/09/21 11:05:28;;;;;;;;;;;12.00;62.20;;;;;;5021376;28;88093;-42
2022/09/21 11:07:54;;;;;;;;;;;12.10;61.80;;;;;;5021711;28;87076;-42
2022/09/21 11:10:40;;;;;;;;;;;12.10;62.00;;;;;;5023635;28;87368;-42
2022/09/21 11:13:05;;;;;;;;;;;12.10;61.90;;;;;;5024882;28;87426;-42
2022/09/21 11:15:49;;;;;;;;;;;12.10;62.00;;;;;;5025148;28;87080;-42
2022/09/21 11:18:18;;;;;;;;;;;12.10;61.80;;;;;;5027958;28;86952;-42
2022/09/21 11:20:48;;;;;;;;;;;12.20;61.60;;;;;;5024472;28;88075;-42
2022/09/21 11:23:23;;;;;;;;;;;12.10;61.80;;;;;;5025160;28;88287;-42
2022/09/21 11:25:54;;;;;;;;;;;12.10;61.60;;;;;;5024391;28;88230;-42
2022/09/21 11:28:21;;;;;;;;;;;12.20;62.00;;;;;;5024842;28;86992;-42
2022/09/21 11:30:55;;;;;;;;;;;12.10;62.00;;;;;;5025170;28;87428;-42
2022/09/21 11:33:21;;;;;;;;;;;12.10;61.70;;;;;;5024580;28;88177;-42
2022/09/21 11:36:05;;;;;;;;;;;12.10;62.10;;;;;;5024896;28;87331;-42
2022/09/21 11:38:39;;;;;;;;;;;12.00;62.00;;;;;;5025265;28;87262;-42
2022/09/21 11:41:34;;;;;;;;;;;12.00;62.30;;;;;;5027360;28;88485;-42
2022/09/21 11:44:09;;;;;;;;;;;11.90;62.50;;;;;;5024796;28;87372;-42
2022/09/21 11:46:42;;;;;;;;;;;11.90;62.70;;;;;;5023706;28;88088;-42
2022/09/21 11:49:21;;;;;;;;;;;11.90;62.80;;;;;;5024050;28;87065;-42
2022/09/21 11:52:04;;;;;;;;;;;11.90;62.80;;;;;;5024862;28;87336;-42
2022/09/21 11:54:33;;;;;;;;;;;11.90;62.80;;;;;;5024348;28;87916;-42
2022/09/21 11:57:07;;;;;;;;;;;11.90;62.90;;;;;;5024657;28;87097;-42
2022/09/21 11:59:41;;;;;;;;;;;11.90;62.90;;;;;;5024409;28;87413;-42
2022/09/21 12:02:16;;;;;;;;;;;11.90;62.90;;;;;;5024195;28;88181;-42
2022/09/21 12:04:41;;;;;;;;;;;11.90;63.50;;;;;;5027786;28;86247;-42
2022/09/21 12:07:07;;;;;;;;;;;11.90;63.00;;;;;;5024220;28;88273;-42
2022/09/21 12:09:51;;;;;;;;;;;11.90;63.00;;;;;;5024044;28;87071;-42
2022/09/21 12:12:37;;;;;;;;;;;11.90;63.10;;;;;;5023787;28;88015;-42
2022/09/21 12:15:25;;;;;;;;;;;11.90;63.00;;;;;;5023343;28;88213;-42
2022/09/21 12:18:07;;;;;;;;;;;12.00;63.00;;;;;;5024408;28;86965;-42
2022/09/21 12:20:42;;;;;;;;;;;12.00;62.90;;;;;;5023926;28;87570;-42
2022/09/21 12:23:12;;;;;;;;;;;12.00;63.00;;;;;;5023771;28;87937;-42
2022/09/21 12:25:40;;;;;;;;;;;12.00;63.00;;;;;;5023876;28;87071;-42
2022/09/21 12:28:17;;;;;;;;;;;12.00;63.00;;;;;;5026505;28;87234;-42
2022/09/21 12:30:46;;;;;;;;;;;12.00;63.00;;;;;;5024874;28;87284;-42
2022/09/21 12:33:21;;;;;;;;;;;12.00;62.90;;;;;;5023519;28;86839;-42
2022/09/21 12:35:49;;;;;;;;;;;12.00;63.00;;;;;;5023455;28;88055;-42
2022/09/21 12:38:27;;;;;;;;;;;12.00;63.00;;;;;;5023028;28;87952;-42
2022/09/21 12:41:16;;;;;;;;;;;12.00;63.00;;;;;;5023863;28;88362;-42
2022/09/21 12:43:50;;;;;;;;;;;12.00;63.00;;;;;;5017588;28;88254;-42
2022/09/21 12:46:20;;;;;;;;;;;12.00;63.00;;;;;;5023951;28;87126;-42
2022/09/21 12:48:46;;;;;;;;;;;12.10;62.80;;;;;;5023853;28;87335;-42
2022/09/21 12:51:15;;;;;;;;;;;12.10;62.60;;;;;;5026154;28;88076;-42
2022/09/21 12:53:47;;;;;;;;;;;12.10;62.60;;;;;;5023811;28;87413;-42
2022/09/21 12:56:31;;;;;;;;;;;12.20;62.70;;;;;;5023919;28;87374;-42
2022/09/21 12:59:03;;;;;;;;;;;12.10;62.60;;;;;;5023707;28;87161;-42
2022/09/21 13:01:28;;;;;;;;;;;12.30;62.30;;;;;;5023541;28;87606;-42
2022/09/21 13:04:13;;;;;;;;;;;12.30;62.90;;;;;;5022653;28;88955;-42
2022/09/21 13:06:53;;;;;;;;;;;12.30;62.30;;;;;;5023330;28;87256;-42
2022/09/21 13:09:20;;;;;;;;;;;12.30;61.90;;;;;;5023129;28;87470;-42
2022/09/21 13:11:55;;;;;;;;;;;12.40;61.80;;;;;;5022926;28;88235;-42
2022/09/21 13:14:23;;;;;;;;;;;12.30;61.80;;;;;;5026687;28;87133;-42
2022/09/21 13:16:57;;;;;;;;;;;12.40;61.80;;;;;;5022874;28;87969;-42
2022/09/21 13:19:24;;;;;;;;;;;12.40;61.70;;;;;;5023316;28;86912;-42
2022/09/21 13:22:12;;;;;;;;;;;12.40;61.60;;;;;;5023600;28;87483;-42
2022/09/21 13:24:38;;;;;;;;;;;12.50;61.60;;;;;;5022771;28;88124;-42
2022/09/21 13:27:06;;;;;;;;;;;12.50;62.10;;;;;;5023020;28;87111;-42
2022/09/21 13:29:33;;;;;;;;;;;12.50;61.50;;;;;;5022173;28;88026;-42
2022/09/21 13:31:58;;;;;;;;;;;12.50;61.50;;;;;;5022095;28;88074;-42
2022/09/21 13:34:45;;;;;;;;;;;12.50;61.40;;;;;;5025708;28;87175;-42
2022/09/21 13:37:14;;;;;;;;;;;12.50;61.50;;;;;;5022828;28;87145;-42
2022/09/21 13:39:43;;;;;;;;;;;12.50;61.50;;;;;;5022931;28;86955;-42
2022/09/21 13:42:27;;;;;;;;;;;12.50;61.60;;;;;;5022668;28;87359;-42
2022/09/21 13:44:53;;;;;;;;;;;12.60;61.40;;;;;;5022785;28;87913;-42
2022/09/21 13:47:27;;;;;;;;;;;12.60;61.40;;;;;;5023451;28;86216;-42
2022/09/21 13:49:53;;;;;;;;;;;12.40;61.80;;;;;;5023412;28;87040;-42
2022/09/21 13:52:25;;;;;;;;;;;12.50;61.70;;;;;;5022556;28;88152;-42
2022/09/21 13:55:04;;;;;;;;;;;12.50;61.50;;;;;;5022151;28;88081;-41
2022/09/21 13:57:36;;;;;;;;;;;12.50;61.40;;;;;;5025165;28;88334;-42
2022/09/21 14:00:26;;;;;;;;;;;12.60;61.40;;;;;;5022435;28;87016;-42
2022/09/21 14:02:53;;;;;;;;;;;12.60;61.20;;;;;;5022772;28;87340;-42
2022/09/21 14:05:25;;;;;;;;;;;12.60;61.10;;;;;;5022285;28;88233;-42
2022/09/21 14:08:09;;;;;;;;;;;12.70;61.10;;;;;;5022741;28;87122;-42
2022/09/21 14:10:36;;;;;;;;;;;12.60;61.10;;;;;;5022531;28;87239;-42
2022/09/21 14:13:04;;;;;;;;;;;12.70;61.10;;;;;;5022544;28;87413;-42
2022/09/21 14:15:32;;;;;;;;;;;12.70;61.20;;;;;;5022254;28;87131;-42
2022/09/21 14:18:09;;;;;;;;;;;12.70;61.20;;;;;;5022456;28;89452;-42
2022/09/21 14:20:37;;;;;;;;;;;12.70;61.20;;;;;;5024330;28;88939;-42
2022/09/21 14:23:18;;;;;;;;;;;12.70;61.20;;;;;;5022369;28;88254;-42
2022/09/21 14:25:51;;;;;;;;;;;12.70;61.40;;;;;;5021877;28;88062;-42
2022/09/21 14:28:18;;;;;;;;;;;12.70;61.20;;;;;;5022364;28;87102;-42
2022/09/21 14:30:48;;;;;;;;;;;12.70;61.00;;;;;;5022331;28;87358;-42
2022/09/21 14:33:26;;;;;;;;;;;12.80;61.00;;;;;;5021802;28;88445;-42